sensor_id;sensor_type;location;lat;lon;timestamp;pressure;altitude;pressure_sealevel;temperature;humidity
70976;BME280;58635;51.198;6.010;2023-05-02T00:01:37;101796.53;;;15.71;56.85
70976;BME280;58635;51.198;6.010;2023-05-02T00:04:03;101798.31;;;15.70;56.86
70976;BME280;58635;51.198;6.010;2023-05-02T00:06:29;101800.94;;;15.70;56.90
70976;BME280;58635;51.198;6.010;2023-05-02T00:08:55;101794.13;;;15.69;57.04
70976;BME280;58635;51.198;6.010;2023-05-02T00:11:21;101806.34;;;15.69;56.83
70976;BME280;58635;51.198;6.010;2023-05-02T00:13:47;101811.16;;;15.72;57.18
70976;BME280;58635;51.198;6.010;2023-05-02T00:16:12;101813.97;;;15.70;56.99
70976;BME280;58635;51.198;6.010;2023-05-02T00:18:38;101822.59;;;15.71;57.07
70976;BME280;58635;51.198;6.010;2023-05-02T00:21:03;101814.97;;;15.69;57.23
70976;BME280;58635;51.198;6.010;2023-05-02T00:23:29;101814.19;;;15.69;57.24
70976;BME280;58635;51.198;6.010;2023-05-02T00:25:54;101813.38;;;15.68;57.19
70976;BME280;58635;51.198;6.010;2023-05-02T00:28:19;101803.94;;;15.67;57.27
70976;BME280;58635;51.198;6.010;2023-05-02T00:30:45;101805.75;;;15.67;57.30
70976;BME280;58635;51.198;6.010;2023-05-02T00:33:11;101803.16;;;15.67;57.37
70976;BME280;58635;51.198;6.010;2023-05-02T00:35:37;101805.16;;;15.65;57.30
70976;BME280;58635;51.198;6.010;2023-05-02T00:38:03;101807.78;;;15.65;57.36
70976;BME280;58635;51.198;6.010;2023-05-02T00:40:28;101809.78;;;15.63;57.45
70976;BME280;58635;51.198;6.010;2023-05-02T00:42:53;101811.56;;;15.62;57.58
70976;BME280;58635;51.198;6.010;2023-05-02T00:45:19;101819.38;;;15.62;57.73
70976;BME280;58635;51.198;6.010;2023-05-02T00:47:44;101818.41;;;15.63;57.58
70976;BME280;58635;51.198;6.010;2023-05-02T00:50:10;101823.81;;;15.62;57.58
70976;BME280;58635;51.198;6.010;2023-05-02T00:52:36;101822.00;;;15.62;57.61
70976;BME280;58635;51.198;6.010;2023-05-02T00:55:02;101823.19;;;15.60;57.76
70976;BME280;58635;51.198;6.010;2023-05-02T00:57:28;101825.59;;;15.61;57.72
70976;BME280;58635;51.198;6.010;2023-05-02T00:59:53;101827.22;;;15.62;57.64
70976;BME280;58635;51.198;6.010;2023-05-02T01:02:52;101825.44;;;15.63;57.86
70976;BME280;58635;51.198;6.010;2023-05-02T01:05:20;101828.03;;;15.63;57.89
70976;BME280;58635;51.198;6.010;2023-05-02T01:08:13;101826.22;;;15.63;57.87
70976;BME280;58635;51.198;6.010;2023-05-02T01:13:13;101827.84;;;15.64;57.79
70976;BME280;58635;51.198;6.010;2023-05-02T01:15:43;101826.22;;;15.63;57.92
70976;BME280;58635;51.198;6.010;2023-05-02T01:18:11;101821.81;;;15.64;57.96
70976;BME280;58635;51.198;6.010;2023-05-02T01:20:39;101831.25;;;15.65;57.86
70976;BME280;58635;51.198;6.010;2023-05-02T01:23:16;101830.44;;;15.64;57.84
70976;BME280;58635;51.198;6.010;2023-05-02T01:26:05;101831.44;;;15.63;57.89
70976;BME280;58635;51.198;6.010;2023-05-02T01:31:18;101831.25;;;15.65;58.01
70976;BME280;58635;51.198;6.010;2023-05-02T01:33:45;101833.66;;;15.66;57.82
70976;BME280;58635;51.198;6.010;2023-05-02T01:36:13;101827.63;;;15.66;57.99
70976;BME280;58635;51.198;6.010;2023-05-02T01:38:41;101837.06;;;15.67;57.89
70976;BME280;58635;51.198;6.010;2023-05-02T01:41:08;101836.84;;;15.68;57.97
70976;BME280;58635;51.198;6.010;2023-05-02T01:43:36;101834.25;;;15.68;57.96
70976;BME280;58635;51.198;6.010;2023-05-02T01:46:04;101829.03;;;15.68;57.95
70976;BME280;58635;51.198;6.010;2023-05-02T01:48:31;101834.03;;;15.70;57.87
70976;BME280;58635;51.198;6.010;2023-05-02T01:50:58;101833.03;;;15.71;57.92
70976;BME280;58635;51.198;6.010;2023-05-02T01:53:25;101833.84;;;15.71;57.79
70976;BME280;58635;51.198;6.010;2023-05-02T01:55:53;101835.44;;;15.72;57.72
70976;BME280;58635;51.198;6.010;2023-05-02T01:58:20;101838.63;;;15.74;57.68
70976;BME280;58635;51.198;6.010;2023-05-02T02:00:46;101849.91;;;15.75;57.88
70976;BME280;58635;51.198;6.010;2023-05-02T02:03:13;101847.09;;;15.76;57.84
70976;BME280;58635;51.198;6.010;2023-05-02T02:05:40;101851.31;;;15.77;57.87
70976;BME280;58635;51.198;6.010;2023-05-02T02:08:06;101859.13;;;15.77;57.78
70976;BME280;58635;51.198;6.010;2023-05-02T02:10:35;101864.34;;;15.77;57.87
70976;BME280;58635;51.198;6.010;2023-05-02T02:13:18;101859.13;;;15.77;57.84
70976;BME280;58635;51.198;6.010;2023-05-02T02:15:49;101868.16;;;15.75;57.91
70976;BME280;58635;51.198;6.010;2023-05-02T02:18:22;101871.38;;;15.77;57.91
70976;BME280;58635;51.198;6.010;2023-05-02T02:20:51;101881.00;;;15.76;58.05
70976;BME280;58635;51.198;6.010;2023-05-02T02:23:18;101878.38;;;15.76;57.88
70976;BME280;58635;51.198;6.010;2023-05-02T02:25:45;101870.94;;;15.73;58.01
70976;BME280;58635;51.198;6.010;2023-05-02T02:28:10;101872.75;;;15.73;57.99
70976;BME280;58635;51.198;6.010;2023-05-02T02:30:36;101883.38;;;15.71;58.00
70976;BME280;58635;51.198;6.010;2023-05-02T02:33:01;101878.38;;;15.70;57.85
70976;BME280;58635;51.198;6.010;2023-05-02T02:35:32;101883.59;;;15.70;57.90
70976;BME280;58635;51.198;6.010;2023-05-02T02:38:15;101885.59;;;15.68;57.79
70976;BME280;58635;51.198;6.010;2023-05-02T02:40:55;101882.59;;;15.64;57.74
70976;BME280;58635;51.198;6.010;2023-05-02T02:43:36;101888.03;;;15.63;57.62
70976;BME280;58635;51.198;6.010;2023-05-02T02:46:13;101890.16;;;15.59;57.58
70976;BME280;58635;51.198;6.010;2023-05-02T02:51:24;101888.38;;;15.53;57.61
70976;BME280;58635;51.198;6.010;2023-05-02T02:56:46;101901.38;;;15.46;57.01
70976;BME280;58635;51.198;6.010;2023-05-02T02:59:31;101901.56;;;15.38;57.14
70976;BME280;58635;51.198;6.010;2023-05-02T03:02:06;101904.78;;;15.34;57.12
70976;BME280;58635;51.198;6.010;2023-05-02T03:04:38;101900.75;;;15.31;57.28
70976;BME280;58635;51.198;6.010;2023-05-02T03:07:06;101900.16;;;15.29;57.16
70976;BME280;58635;51.198;6.010;2023-05-02T03:09:46;101900.16;;;15.29;57.08
70976;BME280;58635;51.198;6.010;2023-05-02T03:12:12;101901.53;;;15.25;56.95
70976;BME280;58635;51.198;6.010;2023-05-02T03:14:38;101907.94;;;15.23;56.98
70976;BME280;58635;51.198;6.010;2023-05-02T03:17:03;101909.16;;;15.20;56.92
70976;BME280;58635;51.198;6.010;2023-05-02T03:19:29;101915.56;;;15.17;56.85
70976;BME280;58635;51.198;6.010;2023-05-02T03:21:54;101921.59;;;15.18;57.00
70976;BME280;58635;51.198;6.010;2023-05-02T03:24:20;101922.59;;;15.17;57.02
70976;BME280;58635;51.198;6.010;2023-05-02T03:26:46;101931.41;;;15.16;57.07
70976;BME280;58635;51.198;6.010;2023-05-02T03:29:13;101928.16;;;15.14;57.09
70976;BME280;58635;51.198;6.010;2023-05-02T03:31:38;101929.16;;;15.13;57.06
70976;BME280;58635;51.198;6.010;2023-05-02T03:34:04;101932.78;;;15.12;57.04
70976;BME280;58635;51.198;6.010;2023-05-02T03:36:29;101924.94;;;15.12;57.11
70976;BME280;58635;51.198;6.010;2023-05-02T03:38:55;101932.78;;;15.12;57.13
70976;BME280;58635;51.198;6.010;2023-05-02T03:41:20;101931.78;;;15.13;57.13
70976;BME280;58635;51.198;6.010;2023-05-02T03:43:46;101934.19;;;15.14;57.18
70976;BME280;58635;51.198;6.010;2023-05-02T03:46:11;101931.41;;;15.16;57.11
70976;BME280;58635;51.198;6.010;2023-05-02T03:48:37;101936.78;;;15.14;57.17
70976;BME280;58635;51.198;6.010;2023-05-02T03:51:04;101940.03;;;15.16;57.18
70976;BME280;58635;51.198;6.010;2023-05-02T03:53:30;101940.81;;;15.17;57.18
70976;BME280;58635;51.198;6.010;2023-05-02T03:55:56;101951.25;;;15.17;57.27
70976;BME280;58635;51.198;6.010;2023-05-02T03:58:22;101948.84;;;15.15;57.04
70976;BME280;58635;51.198;6.010;2023-05-02T04:00:47;101957.47;;;15.16;57.23
70976;BME280;58635;51.198;6.010;2023-05-02T04:03:13;101959.25;;;15.15;57.31
70976;BME280;58635;51.198;6.010;2023-05-02T04:05:38;101966.25;;;15.15;57.29
70976;BME280;58635;51.198;6.010;2023-05-02T04:08:04;101969.69;;;15.15;57.48
70976;BME280;58635;51.198;6.010;2023-05-02T04:10:29;101971.47;;;15.15;57.49
70976;BME280;58635;51.198;6.010;2023-05-02T04:12:54;101974.06;;;15.15;57.43
70976;BME280;58635;51.198;6.010;2023-05-02T04:15:20;101970.84;;;15.13;57.76
70976;BME280;58635;51.198;6.010;2023-05-02T04:17:45;101977.69;;;15.14;57.58
70976;BME280;58635;51.198;6.010;2023-05-02T04:20:11;101973.47;;;15.13;57.68
70976;BME280;58635;51.198;6.010;2023-05-02T04:22:36;101981.88;;;15.15;57.72
70976;BME280;58635;51.198;6.010;2023-05-02T04:25:04;101978.47;;;15.14;57.84
70976;BME280;58635;51.198;6.010;2023-05-02T04:27:30;101978.88;;;15.11;57.73
70976;BME280;58635;51.198;6.010;2023-05-02T04:29:56;101982.88;;;15.14;57.89
70976;BME280;58635;51.198;6.010;2023-05-02T04:32:21;101987.09;;;15.15;57.82
70976;BME280;58635;51.198;6.010;2023-05-02T04:34:47;101986.28;;;15.14;57.88
70976;BME280;58635;51.198;6.010;2023-05-02T04:37:12;101990.69;;;15.14;57.99
70976;BME280;58635;51.198;6.010;2023-05-02T04:39:38;101989.91;;;15.13;57.93
70976;BME280;58635;51.198;6.010;2023-05-02T04:42:03;102000.53;;;15.12;58.16
70976;BME280;58635;51.198;6.010;2023-05-02T04:44:28;101993.72;;;15.11;58.21
70976;BME280;58635;51.198;6.010;2023-05-02T04:46:54;101998.91;;;15.11;58.26
70976;BME280;58635;51.198;6.010;2023-05-02T04:49:19;101996.13;;;15.12;58.15
70976;BME280;58635;51.198;6.010;2023-05-02T04:51:44;102002.13;;;15.13;58.32
70976;BME280;58635;51.198;6.010;2023-05-02T04:54:11;102004.53;;;15.14;58.33
70976;BME280;58635;51.198;6.010;2023-05-02T04:56:37;102004.53;;;15.14;58.38
70976;BME280;58635;51.198;6.010;2023-05-02T04:59:02;102003.56;;;15.15;58.53
70976;BME280;58635;51.198;6.010;2023-05-02T05:01:28;102002.56;;;15.16;58.38
70976;BME280;58635;51.198;6.010;2023-05-02T05:03:54;102012.78;;;15.18;58.51
70976;BME280;58635;51.198;6.010;2023-05-02T05:06:20;102020.41;;;15.19;58.43
70976;BME280;58635;51.198;6.010;2023-05-02T05:08:45;102013.41;;;15.20;58.55
70976;BME280;58635;51.198;6.010;2023-05-02T05:11:11;102025.44;;;15.21;58.56
70976;BME280;58635;51.198;6.010;2023-05-02T05:13:37;102029.66;;;15.22;58.55
70976;BME280;58635;51.198;6.010;2023-05-02T05:16:02;102030.66;;;15.21;58.62
70976;BME280;58635;51.198;6.010;2023-05-02T05:18:29;102037.66;;;15.20;58.73
70976;BME280;58635;51.198;6.010;2023-05-02T05:20:54;102043.06;;;15.19;58.77
70976;BME280;58635;51.198;6.010;2023-05-02T05:23:20;102048.47;;;15.17;58.99
70976;BME280;58635;51.198;6.010;2023-05-02T05:25:45;102056.28;;;15.17;59.07
70976;BME280;58635;51.198;6.010;2023-05-02T05:28:11;102054.69;;;15.16;59.13
70976;BME280;58635;51.198;6.010;2023-05-02T05:30:37;102056.66;;;15.14;59.41
70976;BME280;58635;51.198;6.010;2023-05-02T05:33:02;102064.66;;;15.13;59.40
70976;BME280;58635;51.198;6.010;2023-05-02T05:35:28;102070.09;;;15.11;59.60
70976;BME280;58635;51.198;6.010;2023-05-02T05:37:53;102081.31;;;15.12;59.67
70976;BME280;58635;51.198;6.010;2023-05-02T05:40:19;102080.50;;;15.11;59.96
70976;BME280;58635;51.198;6.010;2023-05-02T05:42:45;102084.31;;;15.09;59.76
70976;BME280;58635;51.198;6.010;2023-05-02T05:45:10;102085.69;;;15.05;59.90
70976;BME280;58635;51.198;6.010;2023-05-02T05:47:36;102093.06;;;15.01;59.65
70976;BME280;58635;51.198;6.010;2023-05-02T05:50:02;102093.25;;;15.00;59.54
70976;BME280;58635;51.198;6.010;2023-05-02T05:52:27;102097.25;;;14.96;59.13
70976;BME280;58635;51.198;6.010;2023-05-02T05:54:53;102097.63;;;14.93;59.01
70976;BME280;58635;51.198;6.010;2023-05-02T05:57:22;102101.03;;;14.93;58.67
70976;BME280;58635;51.198;6.010;2023-05-02T05:59:48;102104.66;;;14.92;58.46
70976;BME280;58635;51.198;6.010;2023-05-02T06:02:13;102103.44;;;14.95;58.14
70976;BME280;58635;51.198;6.010;2023-05-02T06:04:39;102108.66;;;14.95;58.03
70976;BME280;58635;51.198;6.010;2023-05-02T06:07:05;102110.88;;;14.98;57.83
70976;BME280;58635;51.198;6.010;2023-05-02T06:09:30;102108.69;;;15.01;57.65
70976;BME280;58635;51.198;6.010;2023-05-02T06:11:56;102124.94;;;15.03;57.47
70976;BME280;58635;51.198;6.010;2023-05-02T06:14:21;102127.19;;;15.06;57.41
70976;BME280;58635;51.198;6.010;2023-05-02T06:16:46;102129.59;;;15.08;57.14
70976;BME280;58635;51.198;6.010;2023-05-02T06:19:12;102133.81;;;15.09;56.91
70976;BME280;58635;51.198;6.010;2023-05-02T06:21:37;102129.41;;;15.09;56.86
70976;BME280;58635;51.198;6.010;2023-05-02T06:24:03;102142.25;;;15.11;56.58
70976;BME280;58635;51.198;6.010;2023-05-02T06:26:29;102134.81;;;15.08;56.44
70976;BME280;58635;51.198;6.010;2023-05-02T06:28:54;102145.44;;;15.06;56.10
70976;BME280;58635;51.198;6.010;2023-05-02T06:31:20;102143.38;;;15.02;55.82
70976;BME280;58635;51.198;6.010;2023-05-02T06:33:45;102147.78;;;15.01;55.61
70976;BME280;58635;51.198;6.010;2023-05-02T06:36:11;102153.00;;;15.01;55.40
70976;BME280;58635;51.198;6.010;2023-05-02T06:38:36;102151.25;;;15.08;55.18
70976;BME280;58635;51.198;6.010;2023-05-02T06:41:02;102161.34;;;15.18;55.02
70976;BME280;58635;51.198;6.010;2023-05-02T06:43:27;102172.25;;;15.28;54.92
70976;BME280;58635;51.198;6.010;2023-05-02T06:45:53;102170.72;;;15.40;54.66
70976;BME280;58635;51.198;6.010;2023-05-02T06:48:20;102163.97;;;15.53;54.18
70976;BME280;58635;51.198;6.010;2023-05-02T06:50:46;102178.31;;;15.70;53.90
70976;BME280;58635;51.198;6.010;2023-05-02T06:53:11;102180.06;;;15.97;53.20
70976;BME280;58635;51.198;6.010;2023-05-02T06:55:37;102183.94;;;16.21;52.54
70976;BME280;58635;51.198;6.010;2023-05-02T06:58:02;102181.19;;;16.36;51.89
70976;BME280;58635;51.198;6.010;2023-05-02T07:00:28;102183.22;;;16.41;52.01
70976;BME280;58635;51.198;6.010;2023-05-02T07:02:53;102186.66;;;16.48;51.82
70976;BME280;58635;51.198;6.010;2023-05-02T07:05:18;102182.25;;;16.61;51.20
70976;BME280;58635;51.198;6.010;2023-05-02T07:07:44;102188.72;;;16.72;51.31
70976;BME280;58635;51.198;6.010;2023-05-02T07:10:10;102197.16;;;16.81;50.46
70976;BME280;58635;51.198;6.010;2023-05-02T07:12:36;102199.78;;;16.87;50.38
70976;BME280;58635;51.198;6.010;2023-05-02T07:15:04;102200.59;;;16.94;50.02
70976;BME280;58635;51.198;6.010;2023-05-02T07:17:30;102198.59;;;16.97;49.98
70976;BME280;58635;51.198;6.010;2023-05-02T07:19:56;102210.06;;;16.95;49.56
70976;BME280;58635;51.198;6.010;2023-05-02T07:22:22;102210.84;;;16.89;49.55
70976;BME280;58635;51.198;6.010;2023-05-02T07:24:47;102214.47;;;16.82;49.89
70976;BME280;58635;51.198;6.010;2023-05-02T07:27:12;102224.28;;;16.80;50.01
70976;BME280;58635;51.198;6.010;2023-05-02T07:29:38;102226.50;;;16.76;50.01
70976;BME280;58635;51.198;6.010;2023-05-02T07:32:04;102231.91;;;16.68;49.93
70976;BME280;58635;51.198;6.010;2023-05-02T07:34:31;102234.69;;;16.66;50.40
70976;BME280;58635;51.198;6.010;2023-05-02T07:36:57;102243.16;;;16.69;50.16
70976;BME280;58635;51.198;6.010;2023-05-02T07:39:24;102237.56;;;16.72;50.41
70976;BME280;58635;51.198;6.010;2023-05-02T07:41:52;102242.19;;;16.76;50.02
70976;BME280;58635;51.198;6.010;2023-05-02T07:44:18;102247.22;;;16.84;50.06
70976;BME280;58635;51.198;6.010;2023-05-02T07:46:43;102250.25;;;17.01;49.80
70976;BME280;58635;51.198;6.010;2023-05-02T07:49:09;102249.25;;;17.15;49.39
70976;BME280;58635;51.198;6.010;2023-05-02T07:51:34;102257.50;;;17.25;49.02
70976;BME280;58635;51.198;6.010;2023-05-02T07:54:00;102252.28;;;17.25;48.61
70976;BME280;58635;51.198;6.010;2023-05-02T07:56:26;102256.69;;;17.25;48.86
70976;BME280;58635;51.198;6.010;2023-05-02T07:58:52;102251.88;;;17.29;48.81
70976;BME280;58635;51.198;6.010;2023-05-02T08:01:17;102248.06;;;17.31;48.67
70976;BME280;58635;51.198;6.010;2023-05-02T08:03:44;102242.63;;;17.33;48.40
70976;BME280;58635;51.198;6.010;2023-05-02T08:06:09;102252.69;;;17.42;47.99
70976;BME280;58635;51.198;6.010;2023-05-02T08:08:35;102252.25;;;17.65;47.38
70976;BME280;58635;51.198;6.010;2023-05-02T08:11:01;102256.06;;;17.89;46.53
70976;BME280;58635;51.198;6.010;2023-05-02T08:13:27;102258.22;;;17.99;46.44
70976;BME280;58635;51.198;6.010;2023-05-02T08:15:53;102265.25;;;18.05;46.35
70976;BME280;58635;51.198;6.010;2023-05-02T08:18:25;102260.41;;;18.08;45.91
70976;BME280;58635;51.198;6.010;2023-05-02T08:20:52;102269.66;;;18.11;46.09
70976;BME280;58635;51.198;6.010;2023-05-02T08:23:17;102266.63;;;18.14;45.85
70976;BME280;58635;51.198;6.010;2023-05-02T08:25:43;102278.34;;;18.11;45.87
70976;BME280;58635;51.198;6.010;2023-05-02T08:28:08;102292.03;;;18.07;46.17
70976;BME280;58635;51.198;6.010;2023-05-02T08:30:34;102285.03;;;17.88;46.17
70976;BME280;58635;51.198;6.010;2023-05-02T08:32:59;102293.09;;;17.66;46.27
70976;BME280;58635;51.198;6.010;2023-05-02T08:35:24;102289.69;;;17.46;46.75
70976;BME280;58635;51.198;6.010;2023-05-02T08:37:50;102302.19;;;17.31;47.24
70976;BME280;58635;51.198;6.010;2023-05-02T08:40:16;102306.78;;;17.15;47.23
70976;BME280;58635;51.198;6.010;2023-05-02T08:42:42;102298.53;;;17.12;47.01
70976;BME280;58635;51.198;6.010;2023-05-02T08:45:11;102308.78;;;17.07;46.95
70976;BME280;58635;51.198;6.010;2023-05-02T08:47:39;102310.16;;;17.03;47.10
70976;BME280;58635;51.198;6.010;2023-05-02T08:50:06;102315.00;;;16.99;47.09
70976;BME280;58635;51.198;6.010;2023-05-02T08:52:33;102317.63;;;16.99;46.70
70976;BME280;58635;51.198;6.010;2023-05-02T08:55:00;102319.81;;;17.02;46.36
70976;BME280;58635;51.198;6.010;2023-05-02T08:57:27;102322.22;;;17.04;46.52
70976;BME280;58635;51.198;6.010;2023-05-02T08:59:53;102309.19;;;17.10;46.27
70976;BME280;58635;51.198;6.010;2023-05-02T09:05:19;102336.38;;;17.36;45.96
70976;BME280;58635;51.198;6.010;2023-05-02T09:07:49;102330.53;;;17.47;45.66
70976;BME280;58635;51.198;6.010;2023-05-02T09:10:15;102336.78;;;17.59;45.20
70976;BME280;58635;51.198;6.010;2023-05-02T09:12:41;102340.00;;;17.68;45.26
70976;BME280;58635;51.198;6.010;2023-05-02T09:15:11;102338.63;;;17.78;44.68
70976;BME280;58635;51.198;6.010;2023-05-02T09:17:40;102339.00;;;17.89;44.55
70976;BME280;58635;51.198;6.010;2023-05-02T09:20:07;102348.84;;;18.00;44.34
70976;BME280;58635;51.198;6.010;2023-05-02T09:22:32;102349.63;;;18.07;44.01
70976;BME280;58635;51.198;6.010;2023-05-02T09:24:59;102346.22;;;18.13;43.87
70976;BME280;58635;51.198;6.010;2023-05-02T09:27:26;102351.03;;;18.16;43.50
70976;BME280;58635;51.198;6.010;2023-05-02T09:29:51;102363.69;;;18.26;43.26
70976;BME280;58635;51.198;6.010;2023-05-02T09:32:17;102360.84;;;18.40;42.60
70976;BME280;58635;51.198;6.010;2023-05-02T09:35:05;102363.19;;;18.55;42.27
70976;BME280;58635;51.198;6.010;2023-05-02T09:37:34;102369.22;;;18.62;41.97
70976;BME280;58635;51.198;6.010;2023-05-02T09:40:06;102367.81;;;18.66;42.00
70976;BME280;58635;51.198;6.010;2023-05-02T09:42:33;102370.63;;;18.72;41.76
70976;BME280;58635;51.198;6.010;2023-05-02T09:44:58;102369.78;;;18.78;41.78
70976;BME280;58635;51.198;6.010;2023-05-02T09:47:24;102376.41;;;18.80;41.46
70976;BME280;58635;51.198;6.010;2023-05-02T09:49:52;102379.03;;;18.80;41.33
70976;BME280;58635;51.198;6.010;2023-05-02T09:52:19;102379.88;;;18.74;41.25
70976;BME280;58635;51.198;6.010;2023-05-02T09:54:48;102389.38;;;18.62;41.43
70976;BME280;58635;51.198;6.010;2023-05-02T09:57:17;102382.75;;;18.53;41.92
70976;BME280;58635;51.198;6.010;2023-05-02T09:59:56;102396.88;;;18.52;41.79
70976;BME280;58635;51.198;6.010;2023-05-02T10:02:23;102393.44;;;18.51;42.08
70976;BME280;58635;51.198;6.010;2023-05-02T10:04:50;102398.09;;;18.49;41.74
70976;BME280;58635;51.198;6.010;2023-05-02T10:07:18;102402.91;;;18.46;41.99
70976;BME280;58635;51.198;6.010;2023-05-02T10:09:45;102403.75;;;18.39;42.00
70976;BME280;58635;51.198;6.010;2023-05-02T10:12:16;102403.38;;;18.29;41.83
70976;BME280;58635;51.198;6.010;2023-05-02T10:14:48;102405.41;;;18.21;42.27
70976;BME280;58635;51.198;6.010;2023-05-02T10:17:30;102406.81;;;18.10;42.26
70976;BME280;58635;51.198;6.010;2023-05-02T10:20:05;102405.63;;;18.06;41.77
70976;BME280;58635;51.198;6.010;2023-05-02T10:22:32;102410.28;;;18.04;41.52
70976;BME280;58635;51.198;6.010;2023-05-02T10:24:58;102413.91;;;18.03;41.22
70976;BME280;58635;51.198;6.010;2023-05-02T10:27:25;102409.06;;;18.06;41.19
70976;BME280;58635;51.198;6.010;2023-05-02T10:29:51;102415.91;;;18.14;41.13
70976;BME280;58635;51.198;6.010;2023-05-02T10:32:17;102417.91;;;18.25;40.75
70976;BME280;58635;51.198;6.010;2023-05-02T10:34:42;102407.41;;;18.32;40.55
70976;BME280;58635;51.198;6.010;2023-05-02T10:37:08;102409.97;;;18.45;40.40
70976;BME280;58635;51.198;6.010;2023-05-02T10:39:33;102417.19;;;18.63;39.54
70976;BME280;58635;51.198;6.010;2023-05-02T10:42:01;102418.19;;;18.75;39.03
70976;BME280;58635;51.198;6.010;2023-05-02T10:44:37;102407.81;;;18.93;38.51
70976;BME280;58635;51.198;6.010;2023-05-02T10:47:25;102412.00;;;19.08;38.28
70976;BME280;58635;51.198;6.010;2023-05-02T10:49:56;102408.28;;;19.22;38.14
70976;BME280;58635;51.198;6.010;2023-05-02T10:55:23;102406.50;;;19.47;37.97
70976;BME280;58635;51.198;6.010;2023-05-02T11:00:25;102400.28;;;19.42;37.55
70976;BME280;58635;51.198;6.010;2023-05-02T11:02:50;102398.63;;;19.47;37.71
70976;BME280;58635;51.198;6.010;2023-05-02T11:05:16;102392.34;;;19.48;37.40
70976;BME280;58635;51.198;6.010;2023-05-02T11:07:41;102391.78;;;19.46;37.02
70976;BME280;58635;51.198;6.010;2023-05-02T11:10:27;102398.03;;;19.45;37.08
70976;BME280;58635;51.198;6.010;2023-05-02T11:12:57;102399.06;;;19.44;36.77
70976;BME280;58635;51.198;6.010;2023-05-02T11:18:10;102396.38;;;19.51;36.49
70976;BME280;58635;51.198;6.010;2023-05-02T11:20:38;102394.88;;;19.68;36.01
70976;BME280;58635;51.198;6.010;2023-05-02T11:25:47;102398.81;;;20.02;35.33
70976;BME280;58635;51.198;6.010;2023-05-02T11:31:02;102405.53;;;20.17;35.13
70976;BME280;58635;51.198;6.010;2023-05-02T11:33:28;102410.72;;;20.41;34.75
70976;BME280;58635;51.198;6.010;2023-05-02T11:35:54;102406.00;;;20.68;34.15
70976;BME280;58635;51.198;6.010;2023-05-02T11:38:22;102403.00;;;20.95;33.64
70976;BME280;58635;51.198;6.010;2023-05-02T11:40:49;102405.53;;;21.20;33.21
70976;BME280;58635;51.198;6.010;2023-05-02T11:43:17;102417.16;;;21.12;32.63
70976;BME280;58635;51.198;6.010;2023-05-02T11:45:43;102417.31;;;20.69;33.68
70976;BME280;58635;51.198;6.010;2023-05-02T11:48:10;102416.44;;;20.38;34.27
70976;BME280;58635;51.198;6.010;2023-05-02T11:50:49;102409.41;;;20.32;34.66
70976;BME280;58635;51.198;6.010;2023-05-02T11:53:21;102416.44;;;20.38;34.47
70976;BME280;58635;51.198;6.010;2023-05-02T11:55:49;102412.50;;;20.48;33.94
70976;BME280;58635;51.198;6.010;2023-05-02T11:58:17;102419.28;;;20.55;34.41
70976;BME280;58635;51.198;6.010;2023-05-02T12:00:44;102418.84;;;20.58;34.06
70976;BME280;58635;51.198;6.010;2023-05-02T12:03:23;102422.50;;;20.57;33.64
70976;BME280;58635;51.198;6.010;2023-05-02T12:05:49;102418.13;;;20.51;33.98
70976;BME280;58635;51.198;6.010;2023-05-02T12:10:44;102429.72;;;20.80;33.46
70976;BME280;58635;51.198;6.010;2023-05-02T12:13:10;102426.03;;;20.99;33.10
70976;BME280;58635;51.198;6.010;2023-05-02T12:15:35;102430.16;;;21.07;33.04
70976;BME280;58635;51.198;6.010;2023-05-02T12:18:01;102432.69;;;21.02;33.03
70976;BME280;58635;51.198;6.010;2023-05-02T12:20:27;102437.88;;;20.90;33.03
70976;BME280;58635;51.198;6.010;2023-05-02T12:22:52;102439.59;;;20.85;33.21
70976;BME280;58635;51.198;6.010;2023-05-02T12:25:18;102440.47;;;20.79;33.17
70976;BME280;58635;51.198;6.010;2023-05-02T12:27:58;102450.91;;;20.85;32.78
70976;BME280;58635;51.198;6.010;2023-05-02T12:30:25;102448.34;;;20.97;32.69
70976;BME280;58635;51.198;6.010;2023-05-02T12:32:58;102459.31;;;21.24;32.35
70976;BME280;58635;51.198;6.010;2023-05-02T12:35:24;102454.22;;;21.41;32.40
70976;BME280;58635;51.198;6.010;2023-05-02T12:37:52;102451.41;;;21.54;31.88
70976;BME280;58635;51.198;6.010;2023-05-02T12:40:21;102453.38;;;21.70;31.26
70976;BME280;58635;51.198;6.010;2023-05-02T12:43:00;102452.84;;;21.92;30.89
70976;BME280;58635;51.198;6.010;2023-05-02T12:45:31;102453.44;;;22.29;30.72
70976;BME280;58635;51.198;6.010;2023-05-02T12:48:21;102463.69;;;22.65;30.24
70976;BME280;58635;51.198;6.010;2023-05-02T12:50:45;102456.44;;;22.72;29.37
70976;BME280;58635;51.198;6.010;2023-05-02T12:53:11;102464.50;;;22.54;29.49
70976;BME280;58635;51.198;6.010;2023-05-02T12:55:36;102461.34;;;22.40;29.73
70976;BME280;58635;51.198;6.010;2023-05-02T12:58:03;102463.50;;;22.43;29.67
70976;BME280;58635;51.198;6.010;2023-05-02T13:00:30;102462.34;;;22.51;29.54
70976;BME280;58635;51.198;6.010;2023-05-02T13:02:56;102455.66;;;22.60;29.64
70976;BME280;58635;51.198;6.010;2023-05-02T13:05:22;102460.72;;;22.62;29.13
70976;BME280;58635;51.198;6.010;2023-05-02T13:07:47;102466.41;;;22.70;29.27
70976;BME280;58635;51.198;6.010;2023-05-02T13:10:13;102464.78;;;22.81;28.96
70976;BME280;58635;51.198;6.010;2023-05-02T13:12:42;102464.78;;;22.81;29.16
70976;BME280;58635;51.198;6.010;2023-05-02T13:15:07;102472.84;;;22.86;29.25
70976;BME280;58635;51.198;6.010;2023-05-02T13:17:34;102466.97;;;22.84;29.01
70976;BME280;58635;51.198;6.010;2023-05-02T13:19:59;102476.72;;;22.72;29.17
70976;BME280;58635;51.198;6.010;2023-05-02T13:22:26;102472.16;;;22.67;28.97